sensor_id;sensor_type;location;lat;lon;timestamp;temperature;humidity
51996;DHT22;38010;53.264;6.592;2022-07-29T00:02:08;21.00;99.90
51996;DHT22;38010;53.264;6.592;2022-07-29T00:04:35;21.00;99.90
51996;DHT22;38010;53.264;6.592;2022-07-29T00:07:01;20.90;99.90
51996;DHT22;38010;53.264;6.592;2022-07-29T00:09:26;21.00;99.90
51996;DHT22;38010;53.264;6.592;2022-07-29T00:11:53;20.90;99.90
51996;DHT22;38010;53.264;6.592;2022-07-29T00:14:20;20.90;99.90
51996;DHT22;38010;53.264;6.592;2022-07-29T00:16:46;20.90;99.90
51996;DHT22;38010;53.264;6.592;2022-07-29T00:19:11;20.90;99.90
51996;DHT22;38010;53.264;6.592;2022-07-29T00:21:37;20.90;99.90
51996;DHT22;38010;53.264;6.592;2022-07-29T00:24:03;20.90;99.90
51996;DHT22;38010;53.264;6.592;2022-07-29T00:26:29;20.90;99.90
51996;DHT22;38010;53.264;6.592;2022-07-29T00:28:58;20.90;99.90
51996;DHT22;38010;53.264;6.592;2022-07-29T00:31:24;20.90;99.90
51996;DHT22;38010;53.264;6.592;2022-07-29T00:33:50;20.90;99.90
51996;DHT22;38010;53.264;6.592;2022-07-29T00:36:15;20.90;99.90
51996;DHT22;38010;53.264;6.592;2022-07-29T00:38:41;20.80;99.90
51996;DHT22;38010;53.264;6.592;2022-07-29T00:41:11;20.80;99.90
51996;DHT22;38010;53.264;6.592;2022-07-29T00:43:36;20.90;99.90
51996;DHT22;38010;53.264;6.592;2022-07-29T00:46:02;20.80;99.90
51996;DHT22;38010;53.264;6.592;2022-07-29T00:48:28;20.90;99.90
51996;DHT22;38010;53.264;6.592;2022-07-29T00:50:55;20.80;99.90
51996;DHT22;38010;53.264;6.592;2022-07-29T00:53:23;20.80;99.90
51996;DHT22;38010;53.264;6.592;2022-07-29T00:55:48;20.80;99.90
51996;DHT22;38010;53.264;6.592;2022-07-29T00:58:14;20.80;99.90
51996;DHT22;38010;53.264;6.592;2022-07-29T01:00:40;20.80;99.90
51996;DHT22;38010;53.264;6.592;2022-07-29T01:03:09;20.80;99.90
51996;DHT22;38010;53.264;6.592;2022-07-29T01:05:35;20.80;99.90
51996;DHT22;38010;53.264;6.592;2022-07-29T01:08:01;20.80;99.90
51996;DHT22;38010;53.264;6.592;2022-07-29T01:10:28;20.80;99.90
51996;DHT22;38010;53.264;6.592;2022-07-29T01:12:56;20.80;99.90
51996;DHT22;38010;53.264;6.592;2022-07-29T01:15:23;20.80;99.90
51996;DHT22;38010;53.264;6.592;2022-07-29T01:17:54;20.80;99.90
51996;DHT22;38010;53.264;6.592;2022-07-29T01:28:52;20.80;99.90
51996;DHT22;38010;53.264;6.592;2022-07-29T01:31:27;20.80;99.90
51996;DHT22;38010;53.264;6.592;2022-07-29T01:33:58;20.80;99.90
51996;DHT22;38010;53.264;6.592;2022-07-29T01:39:26;20.80;99.90
51996;DHT22;38010;53.264;6.592;2022-07-29T01:42:02;20.80;99.90
51996;DHT22;38010;53.264;6.592;2022-07-29T01:44:38;20.80;99.90
51996;DHT22;38010;53.264;6.592;2022-07-29T01:47:11;20.70;99.90
51996;DHT22;38010;53.264;6.592;2022-07-29T01:49:42;20.70;99.90
51996;DHT22;38010;53.264;6.592;2022-07-29T01:52:15;20.70;99.90
51996;DHT22;38010;53.264;6.592;2022-07-29T01:54:50;20.70;99.90
51996;DHT22;38010;53.264;6.592;2022-07-29T01:57:18;20.70;99.90
51996;DHT22;38010;53.264;6.592;2022-07-29T01:59:46;20.70;99.90
51996;DHT22;38010;53.264;6.592;2022-07-29T02:02:14;20.80;99.90
51996;DHT22;38010;53.264;6.592;2022-07-29T02:04:41;20.70;99.90
51996;DHT22;38010;53.264;6.592;2022-07-29T02:07:12;20.80;99.90
51996;DHT22;38010;53.264;6.592;2022-07-29T02:09:39;20.70;99.90
51996;DHT22;38010;53.264;6.592;2022-07-29T02:12:07;20.70;99.90
51996;DHT22;38010;53.264;6.592;2022-07-29T02:14:38;20.70;99.90
51996;DHT22;38010;53.264;6.592;2022-07-29T02:17:05;20.70;99.90
51996;DHT22;38010;53.264;6.592;2022-07-29T02:19:32;20.70;99.90
51996;DHT22;38010;53.264;6.592;2022-07-29T02:21:58;20.70;99.90
51996;DHT22;38010;53.264;6.592;2022-07-29T02:24:26;20.70;99.90
51996;DHT22;38010;53.264;6.592;2022-07-29T02:26:53;20.70;99.90
51996;DHT22;38010;53.264;6.592;2022-07-29T02:29:23;20.70;99.90
51996;DHT22;38010;53.264;6.592;2022-07-29T02:31:50;20.70;99.90
51996;DHT22;38010;53.264;6.592;2022-07-29T02:34:17;20.70;99.90
51996;DHT22;38010;53.264;6.592;2022-07-29T02:36:44;20.60;99.90
51996;DHT22;38010;53.264;6.592;2022-07-29T02:39:12;20.70;99.90
51996;DHT22;38010;53.264;6.592;2022-07-29T02:41:48;20.70;99.90
51996;DHT22;38010;53.264;6.592;2022-07-29T02:44:18;20.60;99.90
51996;DHT22;38010;53.264;6.592;2022-07-29T02:47:12;20.60;99.90
51996;DHT22;38010;53.264;6.592;2022-07-29T02:50:00;20.60;99.90
51996;DHT22;38010;53.264;6.592;2022-07-29T02:52:34;20.60;99.90
51996;DHT22;38010;53.264;6.592;2022-07-29T02:55:23;20.60;99.90
51996;DHT22;38010;53.264;6.592;2022-07-29T02:58:13;20.60;99.90
51996;DHT22;38010;53.264;6.592;2022-07-29T03:00:40;20.60;99.90
51996;DHT22;38010;53.264;6.592;2022-07-29T03:03:13;20.60;99.90
51996;DHT22;38010;53.264;6.592;2022-07-29T03:05:40;20.60;99.90
51996;DHT22;38010;53.264;6.592;2022-07-29T03:08:08;20.60;99.90
51996;DHT22;38010;53.264;6.592;2022-07-29T03:10:34;20.60;99.90
51996;DHT22;38010;53.264;6.592;2022-07-29T03:13:03;20.60;99.90
51996;DHT22;38010;53.264;6.592;2022-07-29T03:15:30;20.60;99.90
51996;DHT22;38010;53.264;6.592;2022-07-29T03:17:57;20.60;99.90
51996;DHT22;38010;53.264;6.592;2022-07-29T03:20:23;20.60;99.90
51996;DHT22;38010;53.264;6.592;2022-07-29T03:22:50;20.60;99.90
51996;DHT22;38010;53.264;6.592;2022-07-29T03:25:17;20.60;99.90
51996;DHT22;38010;53.264;6.592;2022-07-29T03:27:44;20.60;99.90
51996;DHT22;38010;53.264;6.592;2022-07-29T03:30:11;20.60;99.90
51996;DHT22;38010;53.264;6.592;2022-07-29T03:32:37;20.60;99.90
51996;DHT22;38010;53.264;6.592;2022-07-29T03:35:04;20.60;99.90
51996;DHT22;38010;53.264;6.592;2022-07-29T03:37:30;20.50;99.90
51996;DHT22;38010;53.264;6.592;2022-07-29T03:39:57;20.60;99.90
51996;DHT22;38010;53.264;6.592;2022-07-29T03:42:26;20.50;99.90
51996;DHT22;38010;53.264;6.592;2022-07-29T03:44:54;20.50;99.90
51996;DHT22;38010;53.264;6.592;2022-07-29T03:47:24;20.50;99.90
51996;DHT22;38010;53.264;6.592;2022-07-29T03:49:53;20.50;99.90
51996;DHT22;38010;53.264;6.592;2022-07-29T03:52:20;20.50;99.90
51996;DHT22;38010;53.264;6.592;2022-07-29T03:54:46;20.50;99.90
51996;DHT22;38010;53.264;6.592;2022-07-29T03:57:14;20.50;99.90
51996;DHT22;38010;53.264;6.592;2022-07-29T03:59:41;20.50;99.90
51996;DHT22;38010;53.264;6.592;2022-07-29T04:02:09;20.50;99.90
51996;DHT22;38010;53.264;6.592;2022-07-29T04:04:37;20.50;99.90
51996;DHT22;38010;53.264;6.592;2022-07-29T04:07:03;20.50;99.90
51996;DHT22;38010;53.264;6.592;2022-07-29T04:09:29;20.50;99.90
51996;DHT22;38010;53.264;6.592;2022-07-29T04:11:55;20.50;99.90
51996;DHT22;38010;53.264;6.592;2022-07-29T04:14:20;20.50;99.90
51996;DHT22;38010;53.264;6.592;2022-07-29T04:16:46;20.50;99.90
51996;DHT22;38010;53.264;6.592;2022-07-29T04:19:12;20.50;99.90
51996;DHT22;38010;53.264;6.592;2022-07-29T04:21:39;20.50;99.90
51996;DHT22;38010;53.264;6.592;2022-07-29T04:24:05;20.40;99.90
51996;DHT22;38010;53.264;6.592;2022-07-29T04:26:32;20.50;99.90
51996;DHT22;38010;53.264;6.592;2022-07-29T04:28:57;20.40;99.90
51996;DHT22;38010;53.264;6.592;2022-07-29T04:31:23;20.50;99.90
51996;DHT22;38010;53.264;6.592;2022-07-29T04:33:49;20.50;99.90
51996;DHT22;38010;53.264;6.592;2022-07-29T04:36:15;20.50;99.90
51996;DHT22;38010;53.264;6.592;2022-07-29T04:38:40;20.40;99.90
51996;DHT22;38010;53.264;6.592;2022-07-29T04:41:06;20.50;99.90
51996;DHT22;38010;53.264;6.592;2022-07-29T04:43:37;20.50;99.90
51996;DHT22;38010;53.264;6.592;2022-07-29T04:46:06;20.50;99.90
51996;DHT22;38010;53.264;6.592;2022-07-29T04:48:32;20.50;99.90
51996;DHT22;38010;53.264;6.592;2022-07-29T04:50:58;20.50;99.90
51996;DHT22;38010;53.264;6.592;2022-07-29T04:53:24;20.50;99.90
51996;DHT22;38010;53.264;6.592;2022-07-29T04:55:50;20.40;99.90
51996;DHT22;38010;53.264;6.592;2022-07-29T04:58:16;20.40;99.90
51996;DHT22;38010;53.264;6.592;2022-07-29T05:00:42;20.50;99.90
51996;DHT22;38010;53.264;6.592;2022-07-29T05:03:07;20.40;99.90
51996;DHT22;38010;53.264;6.592;2022-07-29T05:05:33;20.40;99.90
51996;DHT22;38010;53.264;6.592;2022-07-29T05:07:59;20.50;99.90
51996;DHT22;38010;53.264;6.592;2022-07-29T05:10:25;20.50;99.90
51996;DHT22;38010;53.264;6.592;2022-07-29T05:12:50;20.40;99.90
51996;DHT22;38010;53.264;6.592;2022-07-29T05:15:16;20.40;99.90
51996;DHT22;38010;53.264;6.592;2022-07-29T05:17:43;20.50;99.90
51996;DHT22;38010;53.264;6.592;2022-07-29T05:20:09;20.40;99.90
51996;DHT22;38010;53.264;6.592;2022-07-29T05:22:35;20.50;99.90
51996;DHT22;38010;53.264;6.592;2022-07-29T05:25:01;20.50;99.90
51996;DHT22;38010;53.264;6.592;2022-07-29T05:27:27;20.40;99.90
51996;DHT22;38010;53.264;6.592;2022-07-29T05:29:53;20.50;99.90
51996;DHT22;38010;53.264;6.592;2022-07-29T05:32:19;20.50;99.90
51996;DHT22;38010;53.264;6.592;2022-07-29T05:34:44;20.50;99.90
51996;DHT22;38010;53.264;6.592;2022-07-29T05:37:10;20.50;99.90
51996;DHT22;38010;53.264;6.592;2022-07-29T05:39:38;20.40;99.90
51996;DHT22;38010;53.264;6.592;2022-07-29T05:42:08;20.40;99.90
51996;DHT22;38010;53.264;6.592;2022-07-29T05:44:39;20.40;99.90
51996;DHT22;38010;53.264;6.592;2022-07-29T05:47:05;20.40;99.90
51996;DHT22;38010;53.264;6.592;2022-07-29T05:49:32;20.40;99.90
51996;DHT22;38010;53.264;6.592;2022-07-29T05:51:58;20.40;99.90
51996;DHT22;38010;53.264;6.592;2022-07-29T05:54:24;20.50;99.90
51996;DHT22;38010;53.264;6.592;2022-07-29T05:56:51;20.40;99.90
51996;DHT22;38010;53.264;6.592;2022-07-29T05:59:16;20.50;99.90
51996;DHT22;38010;53.264;6.592;2022-07-29T06:01:42;20.50;99.90
51996;DHT22;38010;53.264;6.592;2022-07-29T06:04:08;20.50;99.90
51996;DHT22;38010;53.264;6.592;2022-07-29T06:06:34;20.40;99.90
51996;DHT22;38010;53.264;6.592;2022-07-29T06:09:01;20.50;99.90
51996;DHT22;38010;53.264;6.592;2022-07-29T06:11:27;20.40;99.90
51996;DHT22;38010;53.264;6.592;2022-07-29T06:13:53;20.50;99.90
51996;DHT22;38010;53.264;6.592;2022-07-29T06:16:18;20.50;99.90
51996;DHT22;38010;53.264;6.592;2022-07-29T06:18:44;20.40;99.90
51996;DHT22;38010;53.264;6.592;2022-07-29T06:21:10;20.50;99.90
51996;DHT22;38010;53.264;6.592;2022-07-29T06:23:39;20.50;99.90
51996;DHT22;38010;53.264;6.592;2022-07-29T06:26:05;20.40;99.90
51996;DHT22;38010;53.264;6.592;2022-07-29T06:28:32;20.40;99.90
51996;DHT22;38010;53.264;6.592;2022-07-29T06:30:58;20.40;99.90
51996;DHT22;38010;53.264;6.592;2022-07-29T06:33:24;20.50;99.90
51996;DHT22;38010;53.264;6.592;2022-07-29T06:35:49;20.40;99.90
51996;DHT22;38010;53.264;6.592;2022-07-29T06:38:15;20.40;99.90
51996;DHT22;38010;53.264;6.592;2022-07-29T06:40:42;20.50;99.90
51996;DHT22;38010;53.264;6.592;2022-07-29T06:43:38;20.40;99.90
51996;DHT22;38010;53.264;6.592;2022-07-29T06:46:06;20.50;99.90
51996;DHT22;38010;53.264;6.592;2022-07-29T06:48:33;20.40;99.90
51996;DHT22;38010;53.264;6.592;2022-07-29T06:50:59;20.50;99.90
51996;DHT22;38010;53.264;6.592;2022-07-29T06:53:26;20.40;99.90
51996;DHT22;38010;53.264;6.592;2022-07-29T06:55:52;20.50;99.90
51996;DHT22;38010;53.264;6.592;2022-07-29T06:58:18;20.60;99.90
51996;DHT22;38010;53.264;6.592;2022-07-29T07:00:47;20.70;99.90
51996;DHT22;38010;53.264;6.592;2022-07-29T07:03:14;20.70;99.90
51996;DHT22;38010;53.264;6.592;2022-07-29T07:05:40;20.80;99.90
51996;DHT22;38010;53.264;6.592;2022-07-29T07:08:05;20.90;99.90
51996;DHT22;38010;53.264;6.592;2022-07-29T07:10:32;20.90;99.90
51996;DHT22;38010;53.264;6.592;2022-07-29T07:12:59;20.90;99.90
51996;DHT22;38010;53.264;6.592;2022-07-29T07:15:25;21.10;99.90
51996;DHT22;38010;53.264;6.592;2022-07-29T07:17:50;21.10;99.90
51996;DHT22;38010;53.264;6.592;2022-07-29T07:20:17;21.10;99.90
51996;DHT22;38010;53.264;6.592;2022-07-29T07:22:43;21.10;99.90
51996;DHT22;38010;53.264;6.592;2022-07-29T07:25:09;21.10;99.90
51996;DHT22;38010;53.264;6.592;2022-07-29T07:27:36;21.10;99.90
51996;DHT22;38010;53.264;6.592;2022-07-29T07:30:04;21.10;99.90
51996;DHT22;38010;53.264;6.592;2022-07-29T07:32:31;21.20;99.90
51996;DHT22;38010;53.264;6.592;2022-07-29T07:34:57;21.20;99.90
51996;DHT22;38010;53.264;6.592;2022-07-29T07:37:24;21.20;99.90
51996;DHT22;38010;53.264;6.592;2022-07-29T07:39:53;21.30;99.90
51996;DHT22;38010;53.264;6.592;2022-07-29T07:42:19;21.30;99.90
51996;DHT22;38010;53.264;6.592;2022-07-29T07:44:45;21.30;99.90
51996;DHT22;38010;53.264;6.592;2022-07-29T07:47:12;21.40;99.90
51996;DHT22;38010;53.264;6.592;2022-07-29T07:49:37;21.40;99.90
51996;DHT22;38010;53.264;6.592;2022-07-29T07:52:04;21.40;99.90
51996;DHT22;38010;53.264;6.592;2022-07-29T07:54:29;21.30;99.90
51996;DHT22;38010;53.264;6.592;2022-07-29T07:56:56;21.20;99.90
51996;DHT22;38010;53.264;6.592;2022-07-29T07:59:22;21.20;99.90
51996;DHT22;38010;53.264;6.592;2022-07-29T08:01:48;21.20;99.90
51996;DHT22;38010;53.264;6.592;2022-07-29T08:04:14;21.20;99.90
51996;DHT22;38010;53.264;6.592;2022-07-29T08:06:40;21.30;99.90
51996;DHT22;38010;53.264;6.592;2022-07-29T08:09:05;21.30;99.90
51996;DHT22;38010;53.264;6.592;2022-07-29T08:11:32;21.40;99.90
51996;DHT22;38010;53.264;6.592;2022-07-29T08:13:58;21.40;99.90
51996;DHT22;38010;53.264;6.592;2022-07-29T08:16:23;21.40;99.90
51996;DHT22;38010;53.264;6.592;2022-07-29T08:18:50;21.50;99.90
51996;DHT22;38010;53.264;6.592;2022-07-29T08:21:17;21.50;99.90
51996;DHT22;38010;53.264;6.592;2022-07-29T08:23:44;21.50;99.90
51996;DHT22;38010;53.264;6.592;2022-07-29T08:26:19;21.50;99.90
51996;DHT22;38010;53.264;6.592;2022-07-29T08:28:46;21.60;99.90
51996;DHT22;38010;53.264;6.592;2022-07-29T08:31:15;21.60;99.90
51996;DHT22;38010;53.264;6.592;2022-07-29T08:33:41;21.60;99.90
51996;DHT22;38010;53.264;6.592;2022-07-29T08:36:07;21.60;99.90
51996;DHT22;38010;53.264;6.592;2022-07-29T08:38:33;21.70;99.90
51996;DHT22;38010;53.264;6.592;2022-07-29T08:41:03;21.70;99.90
51996;DHT22;38010;53.264;6.592;2022-07-29T08:43:29;21.80;99.90
51996;DHT22;38010;53.264;6.592;2022-07-29T08:45:55;21.70;99.90
51996;DHT22;38010;53.264;6.592;2022-07-29T08:48:22;21.80;99.90
51996;DHT22;38010;53.264;6.592;2022-07-29T08:50:52;21.80;99.90
51996;DHT22;38010;53.264;6.592;2022-07-29T08:53:21;21.80;99.90
51996;DHT22;38010;53.264;6.592;2022-07-29T08:55:49;21.80;99.90
51996;DHT22;38010;53.264;6.592;2022-07-29T08:58:16;21.80;99.90
51996;DHT22;38010;53.264;6.592;2022-07-29T09:00:44;21.90;99.90
51996;DHT22;38010;53.264;6.592;2022-07-29T09:03:14;21.90;99.90
51996;DHT22;38010;53.264;6.592;2022-07-29T09:05:45;21.90;99.90
51996;DHT22;38010;53.264;6.592;2022-07-29T09:08:12;21.90;99.90
51996;DHT22;38010;53.264;6.592;2022-07-29T09:10:39;21.90;99.90
51996;DHT22;38010;53.264;6.592;2022-07-29T09:13:04;21.90;99.90
51996;DHT22;38010;53.264;6.592;2022-07-29T09:15:30;21.90;99.90
51996;DHT22;38010;53.264;6.592;2022-07-29T09:17:56;21.90;99.90
51996;DHT22;38010;53.264;6.592;2022-07-29T09:20:24;21.90;99.90
51996;DHT22;38010;53.264;6.592;2022-07-29T09:22:53;21.90;99.90
51996;DHT22;38010;53.264;6.592;2022-07-29T09:25:36;22.00;99.90
51996;DHT22;38010;53.264;6.592;2022-07-29T09:30:32;22.00;99.90
51996;DHT22;38010;53.264;6.592;2022-07-29T09:32:59;22.00;99.90
51996;DHT22;38010;53.264;6.592;2022-07-29T09:35:27;21.90;99.90
51996;DHT22;38010;53.264;6.592;2022-07-29T09:37:54;21.80;99.90
51996;DHT22;38010;53.264;6.592;2022-07-29T09:40:27;21.70;99.90
51996;DHT22;38010;53.264;6.592;2022-07-29T09:42:53;21.60;99.90
51996;DHT22;38010;53.264;6.592;2022-07-29T09:45:30;21.60;99.90
51996;DHT22;38010;53.264;6.592;2022-07-29T09:47:57;21.60;99.90
51996;DHT22;38010;53.264;6.592;2022-07-29T09:50:35;21.50;99.90
51996;DHT22;38010;53.264;6.592;2022-07-29T09:53:01;21.50;99.90
51996;DHT22;38010;53.264;6.592;2022-07-29T09:55:27;21.50;99.90
51996;DHT22;38010;53.264;6.592;2022-07-29T09:57:53;21.50;99.90
51996;DHT22;38010;53.264;6.592;2022-07-29T10:00:20;21.50;99.90
51996;DHT22;38010;53.264;6.592;2022-07-29T10:02:48;21.50;99.90
51996;DHT22;38010;53.264;6.592;2022-07-29T10:05:25;21.40;99.90
51996;DHT22;38010;53.264;6.592;2022-07-29T10:07:56;21.40;99.90
51996;DHT22;38010;53.264;6.592;2022-07-29T10:10:24;21.40;99.90
51996;DHT22;38010;53.264;6.592;2022-07-29T10:12:54;21.40;99.90
51996;DHT22;38010;53.264;6.592;2022-07-29T10:15:22;21.40;99.90
51996;DHT22;38010;53.264;6.592;2022-07-29T10:17:47;21.40;99.90
51996;DHT22;38010;53.264;6.592;2022-07-29T10:20:14;21.40;99.90
51996;DHT22;38010;53.264;6.592;2022-07-29T10:22:40;21.30;99.90
51996;DHT22;38010;53.264;6.592;2022-07-29T10:25:08;21.30;99.90
51996;DHT22;38010;53.264;6.592;2022-07-29T10:27:35;21.30;99.90
51996;DHT22;38010;53.264;6.592;2022-07-29T10:30:01;21.30;99.90
51996;DHT22;38010;53.264;6.592;2022-07-29T10:35:17;21.30;99.90
51996;DHT22;38010;53.264;6.592;2022-07-29T10:44:21;21.30;99.90
51996;DHT22;38010;53.264;6.592;2022-07-29T10:46:48;21.30;99.90
51996;DHT22;38010;53.264;6.592;2022-07-29T10:49:15;21.30;99.90
51996;DHT22;38010;53.264;6.592;2022-07-29T10:59:38;21.30;99.90
51996;DHT22;38010;53.264;6.592;2022-07-29T11:05:08;21.30;99.90
51996;DHT22;38010;53.264;6.592;2022-07-29T11:07:36;21.20;99.90
51996;DHT22;38010;53.264;6.592;2022-07-29T11:15:13;21.20;99.90
51996;DHT22;38010;53.264;6.592;2022-07-29T11:23:38;21.10;99.90
51996;DHT22;38010;53.264;6.592;2022-07-29T11:29:05;21.20;99.90
51996;DHT22;38010;53.264;6.592;2022-07-29T11:34:30;21.20;99.90
51996;DHT22;38010;53.264;6.592;2022-07-29T11:45:12;21.10;99.90
51996;DHT22;38010;53.264;6.592;2022-07-29T11:47:50;21.10;99.90
51996;DHT22;38010;53.264;6.592;2022-07-29T11:50:32;21.20;99.90
51996;DHT22;38010;53.264;6.592;2022-07-29T11:52:58;21.20;99.90
51996;DHT22;38010;53.264;6.592;2022-07-29T11:55:24;21.20;99.90
51996;DHT22;38010;53.264;6.592;2022-07-29T11:57:55;21.20;99.90
51996;DHT22;38010;53.264;6.592;2022-07-29T12:00:31;21.20;99.90
51996;DHT22;38010;53.264;6.592;2022-07-29T12:02:58;21.30;99.90
51996;DHT22;38010;53.264;6.592;2022-07-29T12:05:50;21.20;99.90
51996;DHT22;38010;53.264;6.592;2022-07-29T12:08:23;21.30;99.90
51996;DHT22;38010;53.264;6.592;2022-07-29T12:10:51;21.30;99.90
51996;DHT22;38010;53.264;6.592;2022-07-29T12:13:19;21.30;99.90
51996;DHT22;38010;53.264;6.592;2022-07-29T12:15:56;21.30;99.90
51996;DHT22;38010;53.264;6.592;2022-07-29T12:18:22;21.30;99.90
51996;DHT22;38010;53.264;6.592;2022-07-29T12:20:48;21.30;99.90
51996;DHT22;38010;53.264;6.592;2022-07-29T12:23:21;21.30;99.90
51996;DHT22;38010;53.264;6.592;2022-07-29T12:25:47;21.40;99.90
51996;DHT22;38010;53.264;6.592;2022-07-29T12:28:13;21.40;99.90
51996;DHT22;38010;53.264;6.592;2022-07-29T12:30:42;21.50;99.90
51996;DHT22;38010;53.264;6.592;2022-07-29T12:33:12;21.40;99.90
51996;DHT22;38010;53.264;6.592;2022-07-29T12:35:38;21.50;99.90
51996;DHT22;38010;53.264;6.592;2022-07-29T12:38:04;21.50;99.90
51996;DHT22;38010;53.264;6.592;2022-07-29T12:40:30;21.50;99.90
51996;DHT22;38010;53.264;6.592;2022-07-29T12:43:07;21.50;99.90
51996;DHT22;38010;53.264;6.592;2022-07-29T12:45:33;21.50;99.90
51996;DHT22;38010;53.264;6.592;2022-07-29T12:47:58;21.50;99.90
51996;DHT22;38010;53.264;6.592;2022-07-29T12:50:24;21.50;99.90
51996;DHT22;38010;53.264;6.592;2022-07-29T12:52:50;21.50;99.90
51996;DHT22;38010;53.264;6.592;2022-07-29T12:55:37;21.50;99.90
51996;DHT22;38010;53.264;6.592;2022-07-29T12:58:02;21.50;99.90
51996;DHT22;38010;53.264;6.592;2022-07-29T13:00:27;21.50;99.90
51996;DHT22;38010;53.264;6.592;2022-07-29T13:02:56;21.50;99.90
51996;DHT22;38010;53.264;6.592;2022-07-29T13:05:22;21.50;99.90
51996;DHT22;38010;53.264;6.592;2022-07-29T13:07:48;21.50;99.90
51996;DHT22;38010;53.264;6.592;2022-07-29T13:10:20;21.50;99.90
51996;DHT22;38010;53.264;6.592;2022-07-29T13:15:31;21.60;99.90
51996;DHT22;38010;53.264;6.592;2022-07-29T13:17:57;21.60;99.90
51996;DHT22;38010;53.264;6.592;2022-07-29T13:20:28;21.60;99.90
51996;DHT22;38010;53.264;6.592;2022-07-29T13:22:58;21.60;99.90
51996;DHT22;38010;53.264;6.592;2022-07-29T13:25:34;21.70;99.90
51996;DHT22;38010;53.264;6.592;2022-07-29T13:28:00;21.80;99.90
51996;DHT22;38010;53.264;6.592;2022-07-29T13:30:25;21.70;99.90
51996;DHT22;38010;53.264;6.592;2022-07-29T13:32:52;21.80;99.90
51996;DHT22;38010;53.264;6.592;2022-07-29T13:35:18;22.10;99.90
51996;DHT22;38010;53.264;6.592;2022-07-29T13:37:44;22.30;99.90
51996;DHT22;38010;53.264;6.592;2022-07-29T13:40:10;22.70;99.90
51996;DHT22;38010;53.264;6.592;2022-07-29T13:42:36;23.20;99.90
51996;DHT22;38010;53.264;6.592;2022-07-29T13:45:03;23.70;99.50
51996;DHT22;38010;53.264;6.592;2022-07-29T13:47:30;24.30;98.90
51996;DHT22;38010;53.264;6.592;2022-07-29T13:49:56;24.70;98.30
51996;DHT22;38010;53.264;6.592;2022-07-29T13:52:21;25.10;97.90
51996;DHT22;38010;53.264;6.592;2022-07-29T13:54:47;25.40;97.70
51996;DHT22;38010;53.264;6.592;2022-07-29T13:57:14;25.40;97.20
51996;DHT22;38010;53.264;6.592;2022-07-29T13:59:43;25.40;97.00
51996;DHT22;38010;53.264;6.592;2022-07-29T14:02:10;25.30;97.00
51996;DHT22;38010;53.264;6.592;2022-07-29T14:04:36;25.00;97.00
51996;DHT22;38010;53.264;6.592;2022-07-29T14:07:02;24.90;97.20
51996;DHT22;38010;53.264;6.592;2022-07-29T14:09:28;24.70;97.30
51996;DHT22;38010;53.264;6.592;2022-07-29T14:11:55;24.70;97.50
51996;DHT22;38010;53.264;6.592;2022-07-29T14:14:21;24.60;97.60
51996;DHT22;38010;53.264;6.592;2022-07-29T14:16:47;24.50;97.70
51996;DHT22;38010;53.264;6.592;2022-07-29T14:19:12;24.40;97.80
51996;DHT22;38010;53.264;6.592;2022-07-29T14:21:38;24.40;97.90
51996;DHT22;38010;53.264;6.592;2022-07-29T14:24:05;24.30;98.00
51996;DHT22;38010;53.264;6.592;2022-07-29T14:26:31;24.20;98.00
51996;DHT22;38010;53.264;6.592;2022-07-29T14:28:57;24.10;98.10
51996;DHT22;38010;53.264;6.592;2022-07-29T14:31:22;24.00;98.20
51996;DHT22;38010;53.264;6.592;2022-07-29T14:33:48;23.90;98.30
51996;DHT22;38010;53.264;6.592;2022-07-29T14:36:14;23.90;98.40
51996;DHT22;38010;53.264;6.592;2022-07-29T14:38:40;23.80;98.60
51996;DHT22;38010;53.264;6.592;2022-07-29T14:41:07;23.80;98.70
51996;DHT22;38010;53.264;6.592;2022-07-29T14:43:34;23.60;98.70
51996;DHT22;38010;53.264;6.592;2022-07-29T14:46:00;23.60;98.80
51996;DHT22;38010;53.264;6.592;2022-07-29T14:48:26;23.60;98.90
51996;DHT22;38010;53.264;6.592;2022-07-29T14:50:52;23.50;99.00
51996;DHT22;38010;53.264;6.592;2022-07-29T14:53:17;23.50;99.10
51996;DHT22;38010;53.264;6.592;2022-07-29T14:55:43;23.50;99.10
51996;DHT22;38010;53.264;6.592;2022-07-29T14:58:09;23.40;99.20
51996;DHT22;38010;53.264;6.592;2022-07-29T15:00:35;23.40;99.20
51996;DHT22;38010;53.264;6.592;2022-07-29T15:03:02;23.40;99.30
51996;DHT22;38010;53.264;6.592;2022-07-29T15:05:31;23.40;99.40
51996;DHT22;38010;53.264;6.592;2022-07-29T15:07:58;23.40;99.50
51996;DHT22;38010;53.264;6.592;2022-07-29T15:10:24;23.40;99.50
51996;DHT22;38010;53.264;6.592;2022-07-29T15:12:52;23.40;99.50
51996;DHT22;38010;53.264;6.592;2022-07-29T15:15:18;23.40;99.60
51996;DHT22;38010;53.264;6.592;2022-07-29T15:17:44;23.40;99.60
51996;DHT22;38010;53.264;6.592;2022-07-29T15:20:10;23.30;99.50
51996;DHT22;38010;53.264;6.592;2022-07-29T15:22:37;23.20;99.60
51996;DHT22;38010;53.264;6.592;2022-07-29T15:25:04;23.10;99.70
51996;DHT22;38010;53.264;6.592;2022-07-29T15:27:30;23.00;99.80
51996;DHT22;38010;53.264;6.592;2022-07-29T15:29:56;23.00;99.90
51996;DHT22;38010;53.264;6.592;2022-07-29T15:32:21;22.90;99.90
51996;DHT22;38010;53.264;6.592;2022-07-29T15:34:47;22.90;99.90
51996;DHT22;38010;53.264;6.592;2022-07-29T15:37:13;22.90;99.90
51996;DHT22;38010;53.264;6.592;2022-07-29T15:39:39;22.80;99.90
51996;DHT22;38010;53.264;6.592;2022-07-29T15:42:04;22.80;99.90
51996;DHT22;38010;53.264;6.592;2022-07-29T15:44:30;22.80;99.90
51996;DHT22;38010;53.264;6.592;2022-07-29T15:46:56;22.70;99.90
51996;DHT22;38010;53.264;6.592;2022-07-29T15:49:36;22.70;99.90
51996;DHT22;38010;53.264;6.592;2022-07-29T15:52:04;22.60;99.90
51996;DHT22;38010;53.264;6.592;2022-07-29T15:54:35;22.60;99.90
51996;DHT22;38010;53.264;6.592;2022-07-29T15:57:01;22.60;99.90
51996;DHT22;38010;53.264;6.592;2022-07-29T15:59:27;22.50;99.90
51996;DHT22;38010;53.264;6.592;2022-07-29T16:01:54;22.50;99.90
51996;DHT22;38010;53.264;6.592;2022-07-29T16:04:20;22.50;99.90
51996;DHT22;38010;53.264;6.592;2022-07-29T16:06:47;22.40;99.90
51996;DHT22;38010;53.264;6.592;2022-07-29T16:09:14;22.40;99.90
51996;DHT22;38010;53.264;6.592;2022-07-29T16:11:40;22.40;99.90
51996;DHT22;38010;53.264;6.592;2022-07-29T16:14:05;22.30;99.90
51996;DHT22;38010;53.264;6.592;2022-07-29T16:16:31;22.30;99.90
51996;DHT22;38010;53.264;6.592;2022-07-29T16:18:57;22.30;99.90
51996;DHT22;38010;53.264;6.592;2022-07-29T16:21:23;22.30;99.90
51996;DHT22;38010;53.264;6.592;2022-07-29T16:23:49;22.20;99.90
51996;DHT22;38010;53.264;6.592;2022-07-29T16:26:15;22.20;99.90
51996;DHT22;38010;53.264;6.592;2022-07-29T16:28:41;22.20;99.90
51996;DHT22;38010;53.264;6.592;2022-07-29T16:31:07;22.10;99.90
51996;DHT22;38010;53.264;6.592;2022-07-29T16:33:33;22.10;99.90
51996;DHT22;38010;53.264;6.592;2022-07-29T16:35:59;22.10;99.90